createdAt,value
2023-01-15T00:01:37.072Z,27.98
2023-01-15T00:04:06.887Z,28.60
2023-01-15T00:06:39.747Z,27.60
2023-01-15T00:09:07.644Z,28.25
2023-01-15T00:11:34.697Z,26.70
2023-01-15T00:14:01.507Z,27.77
2023-01-15T00:16:28.301Z,28.38
2023-01-15T00:18:57.682Z,27.48
2023-01-15T00:21:26.666Z,27.15
2023-01-15T00:24:12.794Z,27.20
2023-01-15T00:29:26.140Z,36.47
2023-01-15T00:32:02.476Z,40.08
2023-01-15T00:34:30.782Z,41.30
2023-01-15T00:36:58.257Z,40.53
2023-01-15T00:39:25.416Z,40.38
2023-01-15T00:41:52.645Z,40.88
2023-01-15T00:44:20.348Z,40.47
2023-01-15T00:46:47.411Z,41.97
2023-01-15T00:49:15.158Z,42.35
2023-01-15T00:51:41.977Z,43.63
2023-01-15T00:54:08.875Z,41.42
2023-01-15T00:56:36.318Z,44.17
2023-01-15T00:59:04.676Z,43.30
2023-01-15T01:01:32.132Z,45.67
2023-01-15T01:04:00.537Z,43.90
2023-01-15T01:06:27.394Z,43.70
2023-01-15T01:08:54.223Z,43.83
2023-01-15T01:11:27.022Z,45.40
2023-01-15T01:13:55.376Z,45.47
2023-01-15T01:16:32.181Z,43.85
2023-01-15T01:19:00.185Z,44.47
2023-01-15T01:21:27.928Z,43.38
2023-01-15T01:23:55.095Z,43.35
2023-01-15T01:26:21.812Z,44.42
2023-01-15T01:28:52.467Z,44.10
2023-01-15T01:31:20.080Z,45.83
2023-01-15T01:33:49.855Z,46.47
2023-01-15T01:36:16.971Z,46.08
2023-01-15T01:38:43.774Z,46.30
2023-01-15T01:41:10.540Z,43.40
2023-01-15T01:43:59.273Z,45.42
2023-01-15T01:46:27.505Z,44.97
2023-01-15T01:48:58.635Z,43.45
2023-01-15T01:51:28.945Z,44.03
2023-01-15T01:53:57.940Z,42.95
2023-01-15T01:56:25.293Z,43.97
2023-01-15T01:58:55.734Z,41.65
2023-01-15T02:01:25.239Z,39.67
2023-01-15T02:03:53.316Z,39.78
2023-01-15T02:06:20.289Z,41.25
2023-01-15T02:08:46.956Z,40.80
2023-01-15T02:11:19.091Z,40.28
2023-01-15T02:14:15.221Z,39.08
2023-01-15T02:17:04.708Z,39.85
2023-01-15T02:19:34.502Z,39.10
2023-01-15T02:22:29.077Z,40.00
2023-01-15T02:25:09.328Z,39.78
2023-01-15T02:27:38.345Z,41.03
2023-01-15T02:30:31.208Z,39.90
2023-01-15T02:33:10.234Z,38.55
2023-01-15T02:35:58.440Z,41.22
2023-01-15T02:38:28.771Z,40.47
2023-01-15T02:40:59.429Z,40.38
2023-01-15T02:43:31.369Z,40.95
2023-01-15T02:46:00.018Z,40.85
2023-01-15T02:48:30.018Z,40.42
2023-01-15T02:51:09.025Z,40.28
2023-01-15T02:53:38.463Z,40.78
2023-01-15T02:56:10.228Z,41.17
2023-01-15T02:58:39.954Z,41.55
2023-01-15T03:01:15.308Z,42.97
2023-01-15T03:04:10.323Z,41.90
2023-01-15T03:06:52.482Z,43.88
2023-01-15T03:09:20.331Z,43.42
2023-01-15T03:12:05.327Z,42.08
2023-01-15T03:14:38.596Z,44.42
2023-01-15T03:17:27.216Z,43.85
2023-01-15T03:20:03.431Z,44.30
2023-01-15T03:22:37.179Z,43.63
2023-01-15T03:25:09.578Z,42.33
2023-01-15T03:27:36.431Z,41.80
2023-01-15T03:30:09.196Z,41.17
2023-01-15T03:32:36.543Z,45.70
2023-01-15T03:35:04.232Z,41.33
2023-01-15T03:37:31.961Z,42.20
2023-01-15T03:39:59.809Z,42.65
2023-01-15T03:42:41.613Z,41.42
2023-01-15T03:45:08.681Z,39.28
2023-01-15T03:47:54.048Z,41.15
2023-01-15T03:50:42.278Z,38.08
2023-01-15T03:53:23.429Z,37.95
2023-01-15T03:56:02.496Z,39.47
2023-01-15T03:58:52.565Z,38.75
2023-01-15T04:01:26.927Z,38.38
2023-01-15T04:03:55.450Z,41.13
2023-01-15T04:06:23.040Z,39.38
2023-01-15T04:08:50.128Z,38.80
2023-01-15T04:11:23.568Z,40.78
2023-01-15T04:13:51.000Z,39.65
2023-01-15T04:16:31.210Z,40.90
2023-01-15T04:18:58.081Z,42.25
2023-01-15T04:21:25.049Z,42.03
2023-01-15T04:23:51.846Z,40.05
2023-01-15T04:26:18.951Z,42.05
2023-01-15T04:28:45.708Z,41.13
2023-01-15T04:31:12.569Z,41.50
2023-01-15T04:33:40.219Z,38.67
2023-01-15T04:36:07.231Z,37.10
2023-01-15T04:38:33.994Z,39.15
2023-01-15T04:41:23.742Z,36.25
2023-01-15T04:44:08.722Z,38.63
2023-01-15T04:46:38.692Z,41.33
2023-01-15T04:49:08.340Z,41.00
2023-01-15T04:51:35.345Z,39.03
2023-01-15T04:54:04.114Z,40.70
2023-01-15T04:56:31.386Z,42.38
2023-01-15T04:59:02.123Z,38.80
2023-01-15T05:01:29.334Z,39.50
2023-01-15T05:03:57.699Z,39.33
2023-01-15T05:06:25.795Z,40.03
2023-01-15T05:08:52.917Z,40.05
2023-01-15T05:11:19.803Z,38.60
2023-01-15T05:13:46.629Z,36.20
2023-01-15T05:16:24.707Z,36.53
2023-01-15T05:18:52.660Z,35.50
2023-01-15T05:21:34.844Z,33.85
2023-01-15T05:24:04.133Z,34.38
2023-01-15T05:26:32.213Z,36.03
2023-01-15T05:29:00.559Z,35.40
2023-01-15T05:31:28.450Z,38.35
2023-01-15T05:33:55.847Z,38.70
2023-01-15T05:36:28.324Z,38.67
2023-01-15T05:38:58.029Z,38.25
2023-01-15T05:41:43.438Z,38.67
2023-01-15T05:44:12.638Z,38.45
2023-01-15T05:46:41.331Z,37.67
2023-01-15T05:49:11.564Z,37.35
2023-01-15T05:51:38.991Z,37.85
2023-01-15T05:54:07.937Z,38.47
2023-01-15T05:56:38.634Z,38.53
2023-01-15T05:59:06.380Z,37.15
2023-01-15T06:01:33.299Z,37.72
2023-01-15T06:04:02.027Z,38.15
2023-01-15T06:06:29.267Z,38.17
2023-01-15T06:08:56.070Z,37.05
2023-01-15T06:11:23.476Z,36.50
2023-01-15T06:13:50.851Z,38.65
2023-01-15T06:16:18.846Z,37.90
2023-01-15T06:18:46.329Z,41.67
2023-01-15T06:21:14.145Z,41.35
2023-01-15T06:23:41.870Z,43.40
2023-01-15T06:26:18.626Z,41.05
2023-01-15T06:28:46.468Z,43.65
2023-01-15T06:31:16.669Z,46.80
2023-01-15T06:33:43.805Z,47.88
2023-01-15T06:36:16.379Z,46.80
2023-01-15T06:38:44.345Z,45.70
2023-01-15T06:41:35.144Z,46.30
2023-01-15T06:44:20.790Z,47.03
2023-01-15T06:47:07.847Z,45.63
2023-01-15T06:49:36.253Z,46.42
2023-01-15T06:52:04.309Z,47.67
2023-01-15T06:54:31.526Z,49.03
2023-01-15T06:56:58.395Z,47.47
2023-01-15T06:59:25.122Z,46.15
2023-01-15T07:01:52.024Z,47.60
2023-01-15T07:04:19.033Z,49.40
2023-01-15T07:06:45.821Z,50.47
2023-01-15T07:09:12.870Z,50.95
2023-01-15T07:11:49.541Z,50.35
2023-01-15T07:14:21.903Z,49.70
2023-01-15T07:16:49.320Z,51.60
2023-01-15T07:19:16.748Z,52.08
2023-01-15T07:21:43.735Z,52.90
2023-01-15T07:24:11.143Z,51.80
2023-01-15T07:26:38.605Z,52.80
2023-01-15T07:29:05.840Z,54.42
2023-01-15T07:31:33.046Z,54.47
2023-01-15T07:34:00.139Z,52.92
2023-01-15T07:36:27.092Z,54.58
2023-01-15T07:38:54.110Z,52.63
2023-01-15T07:41:40.109Z,52.67
2023-01-15T07:47:13.663Z,50.13
2023-01-15T07:49:45.902Z,50.50
2023-01-15T07:52:20.954Z,51.85
2023-01-15T07:54:49.111Z,54.90
2023-01-15T07:57:20.006Z,55.50
2023-01-15T07:59:46.887Z,55.65
2023-01-15T08:02:13.757Z,56.10
2023-01-15T08:04:40.779Z,56.92
2023-01-15T08:07:08.680Z,57.10
2023-01-15T08:09:36.018Z,57.83
2023-01-15T08:12:22.641Z,59.03
2023-01-15T08:15:07.936Z,58.03
2023-01-15T08:17:38.481Z,59.05
2023-01-15T08:20:08.153Z,59.35
2023-01-15T08:22:34.957Z,55.95
2023-01-15T08:25:02.190Z,56.60
2023-01-15T08:27:31.325Z,56.75
2023-01-15T08:29:58.679Z,56.30
2023-01-15T08:32:25.897Z,55.63
2023-01-15T08:34:52.629Z,55.50
2023-01-15T08:37:19.370Z,55.72
2023-01-15T08:39:46.240Z,53.08
2023-01-15T08:42:13.245Z,54.33
2023-01-15T08:44:40.119Z,53.03
2023-01-15T08:47:06.984Z,53.28
2023-01-15T08:49:33.918Z,54.65
2023-01-15T08:52:01.035Z,54.08
2023-01-15T08:54:28.203Z,49.53
2023-01-15T08:56:54.939Z,52.28
2023-01-15T08:59:21.871Z,51.00
2023-01-15T09:01:48.858Z,51.72
2023-01-15T09:04:17.979Z,51.83
2023-01-15T09:06:46.847Z,53.00
2023-01-15T09:09:13.802Z,52.22
2023-01-15T09:11:42.507Z,52.30
2023-01-15T09:14:58.646Z,54.15
2023-01-15T09:16:58.544Z,51.45
2023-01-15T09:19:25.240Z,53.70
2023-01-15T09:21:51.976Z,52.47
2023-01-15T09:24:18.768Z,51.45
2023-01-15T09:26:45.597Z,54.85
2023-01-15T09:29:12.420Z,52.65
2023-01-15T09:31:39.260Z,51.78
2023-01-15T09:34:05.999Z,51.65
2023-01-15T09:36:34.747Z,51.97
2023-01-15T09:39:03.547Z,50.80
2023-01-15T09:42:12.866Z,52.03
2023-01-15T09:45:07.989Z,49.83
2023-01-15T09:47:56.143Z,49.45
2023-01-15T09:51:19.041Z,50.33
2023-01-15T09:53:54.388Z,48.47
2023-01-15T09:56:24.600Z,49.88
2023-01-15T09:58:52.533Z,50.95
2023-01-15T10:01:25.963Z,50.28
2023-01-15T10:04:31.213Z,47.95
2023-01-15T10:07:26.925Z,51.28
2023-01-15T10:10:11.421Z,48.17
2023-01-15T10:12:40.243Z,50.22
2023-01-15T10:15:25.624Z,52.17
2023-01-15T10:17:56.213Z,49.88
2023-01-15T10:20:22.918Z,51.40
2023-01-15T10:23:08.293Z,50.97
2023-01-15T10:25:51.676Z,51.15
2023-01-15T10:28:28.400Z,49.45
2023-01-15T10:30:56.962Z,51.33
2023-01-15T10:33:41.469Z,51.08
2023-01-15T10:36:24.950Z,51.45
2023-01-15T10:39:12.564Z,51.08
2023-01-15T10:41:51.477Z,53.00
2023-01-15T10:44:51.068Z,51.75
2023-01-15T10:47:22.723Z,54.35
2023-01-15T10:49:50.743Z,52.85
2023-01-15T10:52:32.477Z,54.90
2023-01-15T10:55:37.959Z,54.92
2023-01-15T10:58:28.972Z,53.72
2023-01-15T11:01:03.378Z,55.25
2023-01-15T11:03:38.399Z,55.72
2023-01-15T11:06:11.701Z,55.85
2023-01-15T11:09:07.826Z,56.80
2023-01-15T11:11:57.823Z,56.78
2023-01-15T11:15:00.687Z,55.60
2023-01-15T11:17:55.191Z,55.30
2023-01-15T11:20:45.612Z,57.45
2023-01-15T11:23:20.503Z,57.72
2023-01-15T11:25:57.906Z,55.65
2023-01-15T11:28:46.517Z,57.80
2023-01-15T11:31:14.954Z,57.45
2023-01-15T11:34:05.207Z,55.97
2023-01-15T11:36:32.999Z,55.90
2023-01-15T11:38:59.754Z,56.40
2023-01-15T11:41:46.435Z,55.80
2023-01-15T11:44:33.265Z,54.95
2023-01-15T11:47:18.833Z,55.50
2023-01-15T11:50:14.390Z,55.83
2023-01-15T11:52:48.576Z,56.93
2023-01-15T11:55:20.245Z,56.95
2023-01-15T11:57:49.416Z,55.92
2023-01-15T12:00:28.206Z,55.30
2023-01-15T12:03:01.498Z,56.83
2023-01-15T12:05:36.429Z,58.08
2023-01-15T12:08:14.387Z,57.85
2023-01-15T12:11:21.292Z,58.67
2023-01-15T12:14:17.239Z,60.42
2023-01-15T12:16:52.605Z,62.40
2023-01-15T12:19:34.086Z,63.40
2023-01-15T12:22:47.865Z,60.10
2023-01-15T12:25:52.577Z,60.85
2023-01-15T12:28:40.894Z,59.60
2023-01-15T12:31:13.100Z,63.10
2023-01-15T12:34:05.632Z,63.08
2023-01-15T12:36:41.737Z,61.83
2023-01-15T12:39:32.268Z,63.95
2023-01-15T12:42:22.492Z,64.68
2023-01-15T12:45:05.871Z,61.88
2023-01-15T12:48:07.423Z,63.40
2023-01-15T12:50:45.505Z,66.20
2023-01-15T12:53:27.030Z,64.10
2023-01-15T12:56:20.242Z,66.30
2023-01-15T12:58:55.644Z,64.82
2023-01-15T13:01:41.675Z,66.95
2023-01-15T13:06:49.064Z,64.90
2023-01-15T13:09:36.014Z,68.53
2023-01-15T13:12:02.822Z,69.05
2023-01-15T13:14:30.371Z,69.22
2023-01-15T13:17:22.536Z,66.55
2023-01-15T13:20:08.726Z,66.53
2023-01-15T13:22:52.556Z,65.65
2023-01-15T13:25:38.015Z,67.28
2023-01-15T13:28:28.886Z,69.88
2023-01-15T13:31:32.487Z,67.18
2023-01-15T13:34:05.048Z,65.70
2023-01-15T13:36:45.614Z,67.13
2023-01-15T13:39:23.582Z,67.05
2023-01-15T13:42:12.163Z,66.20
2023-01-15T13:44:51.221Z,66.15
2023-01-15T13:47:26.153Z,65.72
2023-01-15T13:50:01.802Z,65.72
2023-01-15T13:52:34.837Z,64.25
2023-01-15T13:55:08.646Z,63.63
2023-01-15T13:57:40.976Z,62.08
2023-01-15T14:00:26.371Z,62.17
2023-01-15T14:02:58.625Z,61.63
2023-01-15T14:05:35.319Z,64.82
2023-01-15T14:08:14.243Z,61.97
2023-01-15T14:10:41.142Z,63.20
2023-01-15T14:13:16.707Z,62.58
2023-01-15T14:18:45.917Z,58.08
2023-01-15T14:21:31.281Z,60.35
2023-01-15T14:24:18.838Z,60.85
2023-01-15T14:27:05.207Z,60.42
2023-01-15T14:29:50.943Z,62.33
2023-01-15T14:32:47.702Z,61.50
2023-01-15T14:35:21.663Z,62.05
2023-01-15T14:37:58.338Z,61.15
2023-01-15T14:40:32.174Z,60.42
2023-01-15T14:43:07.091Z,60.67
2023-01-15T14:45:39.631Z,55.15
2023-01-15T14:48:29.298Z,50.45
2023-01-15T14:51:14.958Z,49.92
2023-01-15T14:53:50.109Z,48.97
2023-01-15T14:56:22.440Z,48.15
2023-01-15T14:58:51.051Z,45.42
2023-01-15T15:01:25.223Z,46.78
2023-01-15T15:03:59.463Z,44.22
2023-01-15T15:06:27.896Z,44.00
2023-01-15T15:09:03.373Z,44.70
2023-01-15T15:11:59.927Z,44.42
2023-01-15T15:17:00.319Z,44.13
2023-01-15T15:19:30.807Z,46.58
2023-01-15T15:21:59.887Z,45.95
2023-01-15T15:24:32.380Z,45.60
2023-01-15T15:27:16.558Z,46.90
2023-01-15T15:29:43.523Z,46.13
2023-01-15T15:32:18.346Z,45.92
2023-01-15T15:34:51.028Z,43.50
2023-01-15T15:37:20.506Z,47.20
2023-01-15T15:39:55.442Z,45.63
2023-01-15T15:42:48.791Z,45.22
2023-01-15T15:45:42.614Z,42.63
2023-01-15T15:48:32.655Z,43.00
2023-01-15T15:50:59.991Z,43.65
2023-01-15T15:53:26.965Z,43.45
2023-01-15T15:55:55.273Z,44.88
2023-01-15T15:58:31.084Z,44.55
2023-01-15T16:00:58.066Z,47.90
2023-01-15T16:07:36.458Z,43.97
2023-01-15T16:10:13.468Z,43.28
2023-01-15T16:12:49.453Z,41.97
2023-01-15T16:15:19.225Z,44.42
2023-01-15T16:17:46.800Z,42.30
2023-01-15T16:20:19.527Z,42.60
2023-01-15T16:22:51.479Z,42.83
2023-01-15T16:25:27.639Z,41.13
2023-01-15T16:27:54.384Z,40.42
2023-01-15T16:30:21.569Z,40.35
2023-01-15T16:32:50.223Z,41.47
2023-01-15T16:35:20.957Z,39.67
2023-01-15T16:37:59.152Z,41.33
2023-01-15T16:40:28.679Z,40.92
2023-01-15T16:43:16.295Z,37.55
2023-01-15T16:46:01.665Z,38.92
2023-01-15T16:48:38.307Z,38.58
2023-01-15T16:51:35.747Z,39.53
2023-01-15T16:54:04.950Z,40.70
2023-01-15T16:56:37.921Z,37.75
2023-01-15T16:59:14.685Z,39.03
2023-01-15T17:01:44.276Z,40.67
2023-01-15T17:04:29.469Z,39.30
2023-01-15T17:07:03.347Z,40.57
2023-01-15T17:09:36.561Z,41.70
2023-01-15T17:12:38.254Z,41.90
2023-01-15T17:15:17.585Z,42.47
2023-01-15T17:17:51.770Z,42.53
2023-01-15T17:20:20.089Z,42.17
2023-01-15T17:22:49.484Z,44.42
2023-01-15T17:25:31.172Z,41.72
2023-01-15T17:27:59.569Z,41.38
2023-01-15T17:30:34.934Z,41.35
2023-01-15T17:33:03.354Z,40.63
2023-01-15T17:35:35.977Z,41.50
2023-01-15T17:38:03.234Z,38.15
2023-01-15T17:40:30.034Z,39.17
2023-01-15T17:42:59.157Z,39.88
2023-01-15T17:45:31.016Z,38.88
2023-01-15T17:47:58.183Z,38.22
2023-01-15T17:50:25.703Z,38.80
2023-01-15T17:52:52.613Z,39.15
2023-01-15T17:55:40.645Z,38.30
2023-01-15T17:58:30.553Z,38.83
2023-01-15T18:01:15.917Z,39.03
2023-01-15T18:04:08.485Z,37.67
2023-01-15T18:06:35.587Z,37.92
2023-01-15T18:09:05.424Z,38.05
2023-01-15T18:11:32.414Z,36.95
2023-01-15T18:13:59.348Z,37.75
2023-01-15T18:16:27.864Z,35.78
2023-01-15T18:18:54.712Z,34.25
2023-01-15T18:21:22.275Z,35.28
2023-01-15T18:23:48.950Z,35.72
2023-01-15T18:26:15.679Z,34.60
2023-01-15T18:28:42.496Z,37.83
2023-01-15T18:31:11.420Z,36.72
2023-01-15T18:33:38.155Z,37.10
2023-01-15T18:36:11.288Z,36.50
2023-01-15T18:38:40.450Z,37.90
2023-01-15T18:41:52.122Z,39.20
2023-01-15T18:44:42.831Z,41.55
2023-01-15T18:47:15.144Z,44.05
2023-01-15T18:49:44.023Z,44.38
2023-01-15T18:52:31.275Z,45.40
2023-01-15T18:54:58.112Z,46.15
2023-01-15T18:57:24.896Z,50.00
2023-01-15T18:59:52.356Z,50.88
2023-01-15T19:02:21.170Z,55.85
2023-01-15T19:04:48.269Z,52.25
2023-01-15T19:07:15.519Z,54.17
2023-01-15T19:09:42.355Z,52.35
2023-01-15T19:12:09.317Z,53.95
2023-01-15T19:14:54.536Z,53.67
2023-01-15T19:17:42.515Z,53.23
2023-01-15T19:20:12.618Z,57.00
2023-01-15T19:22:57.922Z,57.50
2023-01-15T19:25:41.159Z,58.63
2023-01-15T19:28:10.207Z,61.25
2023-01-15T19:30:38.869Z,61.78
2023-01-15T19:33:06.926Z,64.35
2023-01-15T19:35:35.149Z,62.90
2023-01-15T19:38:02.080Z,62.45
2023-01-15T19:40:30.387Z,62.10
2023-01-15T19:43:15.968Z,62.13
2023-01-15T19:46:03.427Z,63.67
2023-01-15T19:48:48.804Z,63.05
2023-01-15T19:51:15.768Z,65.00
2023-01-15T19:53:42.527Z,65.53
2023-01-15T19:56:09.293Z,67.10
2023-01-15T19:58:37.208Z,69.25
2023-01-15T20:01:05.399Z,69.07
2023-01-15T20:03:32.369Z,69.32
2023-01-15T20:05:59.382Z,67.75
2023-01-15T20:08:26.469Z,66.60
2023-01-15T20:10:53.207Z,65.63
2023-01-15T20:13:41.590Z,64.43
2023-01-15T20:16:11.681Z,63.47
2023-01-15T20:18:38.730Z,61.63
2023-01-15T20:21:06.210Z,59.50
2023-01-15T20:23:33.683Z,57.55
2023-01-15T20:26:06.363Z,58.60
2023-01-15T20:28:36.019Z,58.15
2023-01-15T20:31:03.882Z,59.03
2023-01-15T20:33:30.735Z,56.58
2023-01-15T20:36:01.652Z,57.53
2023-01-15T20:38:29.914Z,57.13
2023-01-15T20:41:16.917Z,54.70
2023-01-15T20:44:01.971Z,54.60
2023-01-15T20:46:28.951Z,53.00
2023-01-15T20:49:14.015Z,52.50
2023-01-15T20:51:40.729Z,53.85
2023-01-15T20:54:07.372Z,50.42
2023-01-15T20:56:34.087Z,51.40
2023-01-15T20:59:00.979Z,50.22
2023-01-15T21:01:28.564Z,49.88
2023-01-15T21:03:55.531Z,48.17
2023-01-15T21:06:22.709Z,48.45
2023-01-15T21:08:49.573Z,48.90
2023-01-15T21:11:16.349Z,45.00
2023-01-15T21:13:45.162Z,45.90
2023-01-15T21:16:13.864Z,46.22
2023-01-15T21:18:43.211Z,46.03
2023-01-15T21:21:12.037Z,45.55
2023-01-15T21:23:40.133Z,46.45
2023-01-15T21:26:07.405Z,47.70
2023-01-15T21:28:34.239Z,46.20
2023-01-15T21:31:04.075Z,45.03
2023-01-15T21:33:30.799Z,46.58
2023-01-15T21:35:57.544Z,46.55
2023-01-15T21:38:24.425Z,46.80
2023-01-15T21:40:51.157Z,48.55
2023-01-15T21:43:36.397Z,50.28
2023-01-15T21:46:05.303Z,50.37
2023-01-15T21:48:32.819Z,53.17
2023-01-15T21:51:03.192Z,54.55
2023-01-15T21:53:31.080Z,58.03
2023-01-15T21:55:57.738Z,55.25
2023-01-15T21:58:24.559Z,58.35
2023-01-15T22:00:51.399Z,56.60
2023-01-15T22:03:18.317Z,59.85
2023-01-15T22:05:45.541Z,61.88
2023-01-15T22:08:12.279Z,60.17
2023-01-15T22:10:39.483Z,58.45
2023-01-15T22:13:06.320Z,58.35
2023-01-15T22:15:33.014Z,59.70
2023-01-15T22:17:59.747Z,58.15
2023-01-15T22:20:26.668Z,60.20
2023-01-15T22:22:53.339Z,61.80
2023-01-15T22:25:20.115Z,59.90
2023-01-15T22:27:47.004Z,61.10
2023-01-15T22:30:15.727Z,59.50
2023-01-15T22:32:42.739Z,62.13
2023-01-15T22:35:09.961Z,60.95
2023-01-15T22:37:36.696Z,61.35
2023-01-15T22:40:04.510Z,61.08
2023-01-15T22:42:32.918Z,57.92
2023-01-15T22:45:00.696Z,55.85
2023-01-15T22:47:28.767Z,55.95
2023-01-15T22:49:55.570Z,54.38
2023-01-15T22:52:25.195Z,57.63
2023-01-15T22:54:52.379Z,53.15
2023-01-15T22:57:19.704Z,53.85
2023-01-15T22:59:46.651Z,52.92
2023-01-15T23:02:13.463Z,52.10
2023-01-15T23:04:40.550Z,52.28
2023-01-15T23:07:07.446Z,51.58
2023-01-15T23:09:34.420Z,49.63
2023-01-15T23:12:01.449Z,47.13
2023-01-15T23:14:28.285Z,47.25
2023-01-15T23:16:55.108Z,45.47
2023-01-15T23:19:22.311Z,46.70
2023-01-15T23:21:49.060Z,44.17
2023-01-15T23:24:15.954Z,43.40
2023-01-15T23:26:42.851Z,44.35
2023-01-15T23:29:09.685Z,44.67
2023-01-15T23:31:36.465Z,44.92
2023-01-15T23:34:03.301Z,45.20
2023-01-15T23:36:30.129Z,44.55
2023-01-15T23:38:56.914Z,43.90
2023-01-15T23:41:43.285Z,46.28
2023-01-15T23:44:35.544Z,45.03
2023-01-15T23:47:02.546Z,44.50
2023-01-15T23:49:29.299Z,43.45
2023-01-15T23:51:56.195Z,43.95
2023-01-15T23:54:25.610Z,44.42
2023-01-15T23:56:53.007Z,46.63
2023-01-15T23:59:19.797Z,45.00
